Terminal Aerodrome Forecast
Issued by NWS

Home | Current Version | Previous Version | Text Only | Print | Product List | Glossary On
Versions: 1 2 3 4 5 6 7 8 9 10 11 12 13
000
FTUS45 KABQ 211720
TAFROW
TAF
KROW 211720Z 2118/2218 02020G30KT P6SM BKN250
     FM220000 05010KT P6SM BKN250
     FM220300 04006KT P6SM SCT250
     FM220600 VRB03KT P6SM FEW250
     FM221600 16008KT P6SM FEW250=

USA.gov is the U.S. government's official web portal to all federal, state and local government web resources and services.